Time;durP1;ratioP1;P1;durP2;ratioP2;P2;SDS_P1;SDS_P2;PMS_P1;PMS_P2;Temp;Humidity;BMP_temperature;BMP_pressure;BME280_temperature;BME280_humidity;BME280_pressure;Samples;Min_cycle;Max_cycle;Signal;HPM_P1;HPM_P2
2021/07/19 00:00:31;;;;;;;0.10;0.10;;;;;;;29.19;48.42;99039.72;5048874;28;20478;-56
2021/07/19 00:02:58;;;;;;;0.10;0.10;;;;;;;29.15;48.40;99035.84;5030708;28;20077;-57
2021/07/19 00:05:25;;;;;;;0.20;0.20;;;;;;;29.18;48.43;99041.59;5048670;28;20052;-57
2021/07/19 00:07:51;;;;;;;0.20;0.20;;;;;;;29.19;48.35;99042.41;5033020;28;20080;-57
2021/07/19 00:10:18;;;;;;;0.20;0.20;;;;;;;29.18;48.36;99051.53;5052024;28;20056;-55
2021/07/19 00:12:44;;;;;;;0.10;0.10;;;;;;;29.17;48.32;99039.09;5034344;28;20055;-58
2021/07/19 00:15:13;;;;;;;0.15;0.15;;;;;;;29.17;48.23;99044.47;5050856;28;20076;-57
2021/07/19 00:17:39;;;;;;;0.00;0.00;;;;;;;29.08;48.26;99029.69;5052165;28;20068;-58
2021/07/19 00:20:06;;;;;;;0.10;0.10;;;;;;;29.15;48.26;99047.41;5051804;28;20063;-58
2021/07/19 00:22:33;;;;;;;0.30;0.30;;;;;;;29.14;48.53;99047.63;5051908;28;20064;-59
2021/07/19 00:24:59;;;;;;;0.20;0.20;;;;;;;29.09;48.24;99047.47;5051798;28;20049;-58
2021/07/19 00:27:24;;;;;;;0.10;0.10;;;;;;;29.04;48.29;99037.38;5051922;28;20068;-56
2021/07/19 00:29:50;;;;;;;0.20;0.20;;;;;;;29.10;48.49;99057.16;5052008;28;20119;-58
2021/07/19 00:32:16;;;;;;;0.10;0.10;;;;;;;29.09;48.40;99063.63;5033748;28;20076;-58
2021/07/19 00:34:42;;;;;;;0.17;0.17;;;;;;;29.09;48.54;99058.25;5051871;28;20501;-58
2021/07/19 00:37:26;;;;;;;0.20;0.20;;;;;;;29.08;48.60;99054.72;5036558;28;20108;-57
2021/07/19 00:39:52;;;;;;;0.10;0.10;;;;;;;29.07;48.41;99055.75;5051913;28;20161;-57
2021/07/19 00:42:18;;;;;;;0.20;0.20;;;;;;;29.05;48.55;99048.97;5017271;28;20063;-58
2021/07/19 00:44:44;;;;;;;0.28;0.28;;;;;;;29.06;48.67;99047.94;5051818;28;20041;-56
2021/07/19 00:47:10;;;;;;;0.00;0.00;;;;;;;29.03;48.62;99046.50;5051192;28;20075;-57
2021/07/19 00:49:36;;;;;;;0.13;0.13;;;;;;;28.94;48.37;99029.84;5033952;28;20044;-58
2021/07/19 00:52:04;;;;;;;0.15;0.15;;;;;;;29.03;48.69;99042.97;5050006;28;20060;-56
2021/07/19 00:54:31;;;;;;;0.10;0.10;;;;;;;29.02;48.64;99035.97;5050251;28;20057;-58
2021/07/19 00:56:57;;;;;;;0.10;0.10;;;;;;;29.04;48.57;99044.63;5051190;28;20051;-58
2021/07/19 00:59:23;;;;;;;0.22;0.22;;;;;;;29.02;48.44;99039.47;5050236;28;20045;-57
2021/07/19 01:01:50;;;;;;;0.08;0.08;;;;;;;28.95;48.53;99031.50;5033593;28;20099;-57
2021/07/19 01:04:18;;;;;;;0.00;0.00;;;;;;;29.01;48.56;99037.00;5033406;28;20072;-58
2021/07/19 01:06:50;;;;;;;0.47;0.47;;;;;;;29.00;48.63;99040.72;5033391;28;20159;-57
2021/07/19 01:09:16;;;;;;;0.47;0.47;;;;;;;28.93;48.62;99038.94;5050814;28;20045;-57
2021/07/19 01:11:43;;;;;;;0.10;0.10;;;;;;;28.98;48.35;99040.13;5049921;28;20056;-56
2021/07/19 01:14:09;;;;;;;0.17;0.17;;;;;;;28.86;48.71;99022.03;5049686;28;20048;-56
2021/07/19 01:16:38;;;;;;;0.03;0.03;;;;;;;28.97;48.58;99031.25;5051029;28;20123;-57
2021/07/19 01:19:04;;;;;;;0.00;0.00;;;;;;;28.96;48.41;99027.72;5050502;28;20087;-57
2021/07/19 01:21:59;;;;;;;0.20;0.20;;;;;;;28.96;48.44;99021.53;5049780;28;20049;-56
2021/07/19 01:24:57;;;;;;;0.10;0.10;;;;;;;28.97;48.32;99036.63;5049740;28;20137;-57
2021/07/19 01:27:29;;;;;;;0.30;0.30;;;;;;;28.99;48.36;99041.78;5033008;28;20049;-57
2021/07/19 01:29:57;;;;;;;0.10;0.10;;;;;;;29.01;48.23;99047.75;5033033;28;20079;-58
2021/07/19 01:32:23;;;;;;;0.30;0.30;;;;;;;28.91;48.29;99030.28;5033063;28;20087;-58
2021/07/19 01:34:49;;;;;;;0.10;0.10;;;;;;;29.01;48.22;99045.91;5049499;28;20526;-58
2021/07/19 01:37:16;;;;;;;0.10;0.10;;;;;;;29.04;48.24;99044.63;5032698;28;20063;-58
2021/07/19 01:40:09;;;;;;;0.00;0.00;;;;;;;28.95;48.12;99020.75;5019653;28;20052;-57
2021/07/19 01:42:36;;;;;;;0.15;0.15;;;;;;;29.05;48.12;99033.66;5050480;28;20057;-58
2021/07/19 01:45:06;;;;;;;2.03;0.75;;;;;;;29.10;48.09;99044.56;5050446;28;20076;-58
2021/07/19 01:47:33;;;;;;;0.20;0.20;;;;;;;29.14;47.91;99045.75;5049313;28;20106;-58
2021/07/19 01:50:00;;;;;;;0.43;0.43;;;;;;;29.15;47.69;99041.22;5050364;28;20485;-57
2021/07/19 01:52:27;;;;;;;0.03;0.03;;;;;;;29.17;47.68;99041.78;5032731;28;20053;-57
2021/07/19 01:54:55;;;;;;;0.20;0.20;;;;;;;29.09;47.73;99026.78;5032644;28;20522;-57
2021/07/19 01:57:21;;;;;;;0.10;0.10;;;;;;;29.10;47.86;99039.19;5048840;28;20068;-58
2021/07/19 01:59:54;;;;;;;0.10;0.10;;;;;;;29.07;47.68;99031.56;5033464;28;20045;-57
2021/07/19 02:02:38;;;;;;;0.17;0.17;;;;;;;29.10;47.88;99038.34;5049171;28;20064;-54
2021/07/19 02:05:12;;;;;;;0.20;0.20;;;;;;;29.07;47.72;99031.56;5032284;28;20060;-56
2021/07/19 02:07:41;;;;;;;0.10;0.10;;;;;;;29.14;48.04;99039.56;5032326;28;20533;-58
2021/07/19 02:10:10;;;;;;;0.30;0.30;;;;;;;29.16;47.65;99042.81;5063264;28;20057;-56
2021/07/19 02:12:42;;;;;;;0.30;0.30;;;;;;;29.18;47.81;99046.97;5016735;28;20409;-56
2021/07/19 02:15:12;;;;;;;0.40;0.40;;;;;;;29.16;47.63;99032.06;5048661;28;20045;-55
2021/07/19 02:17:39;;;;;;;0.22;0.22;;;;;;;29.19;47.33;99034.34;5032401;28;20053;-57
2021/07/19 02:20:10;;;;;;;0.25;0.25;;;;;;;29.23;47.52;99043.59;5048555;28;20064;-55
2021/07/19 02:22:40;;;;;;;0.10;0.10;;;;;;;29.22;47.29;99047.34;5032056;28;20053;-56
2021/07/19 02:25:18;;;;;;;0.20;0.20;;;;;;;29.23;47.29;99048.97;5033396;28;20045;-57
2021/07/19 02:27:51;;;;;;;0.10;0.10;;;;;;;29.23;47.37;99048.97;5031994;28;20049;-55
2021/07/19 02:30:18;;;;;;;0.10;0.10;;;;;;;29.16;47.30;99037.44;5014719;28;20051;-58
2021/07/19 02:32:47;;;;;;;0.30;0.30;;;;;;;29.26;47.27;99053.94;5032117;28;20057;-55
2021/07/19 02:35:14;;;;;;;0.10;0.10;;;;;;;29.26;47.41;99057.44;5031804;28;20056;-57
2021/07/19 02:37:42;;;;;;;0.45;0.45;;;;;;;29.31;47.12;99046.84;5049451;28;20056;-57
2021/07/19 02:40:24;;;;;;;0.20;0.20;;;;;;;29.37;46.99;99054.00;5048273;28;20044;-56
2021/07/19 02:43:01;;;;;;;0.20;0.20;;;;;;;29.34;46.98;99037.50;5031826;28;20068;-56
2021/07/19 02:45:30;;;;;;;0.00;0.00;;;;;;;29.48;46.92;99053.25;5049656;28;20049;-56
2021/07/19 02:47:59;;;;;;;0.10;0.10;;;;;;;29.51;46.72;99052.00;5031947;28;20439;-58
2021/07/19 02:50:32;;;;;;;0.10;0.10;;;;;;;29.60;46.58;99058.72;5016809;28;20052;-57
2021/07/19 02:53:02;;;;;;;0.75;0.75;;;;;;;29.74;46.21;99056.69;5049277;28;20131;-57
2021/07/19 02:55:29;;;;;;;0.10;0.10;;;;;;;29.75;46.10;99056.44;5031879;28;20243;-56
2021/07/19 02:57:55;;;;;;;0.13;0.13;;;;;;;29.76;46.17;99060.78;5015357;28;20060;-57
2021/07/19 03:00:21;;;;;;;0.22;0.22;;;;;;;29.76;46.05;99058.09;5047960;28;20049;-55
2021/07/19 03:03:00;;;;;;;0.10;0.10;;;;;;;29.77;46.12;99054.34;5016295;28;20104;-56
2021/07/19 03:05:32;;;;;;;0.00;0.00;;;;;;;29.77;45.99;99045.44;5015343;28;20048;-57
2021/07/19 03:08:04;;;;;;;0.10;0.10;;;;;;;29.84;46.04;99048.91;5047669;28;20135;-54
2021/07/19 03:10:52;;;;;;;0.17;0.17;;;;;;;29.85;45.88;99059.44;5048475;28;20487;-56
2021/07/19 03:13:27;;;;;;;0.10;0.10;;;;;;;29.95;45.83;99053.50;5031774;28;20049;-55
2021/07/19 03:15:55;;;;;;;0.20;0.20;;;;;;;30.02;45.63;99056.09;5048284;28;20577;-57
2021/07/19 03:18:21;;;;;;;0.00;0.00;;;;;;;30.12;45.40;99059.06;5047738;28;20135;-56
2021/07/19 03:20:47;;;;;;;0.20;0.20;;;;;;;30.25;45.09;99064.25;5048047;28;20060;-56
2021/07/19 03:23:14;;;;;;;0.20;0.20;;;;;;;30.34;44.95;99058.31;5048813;28;20510;-57
2021/07/19 03:25:41;;;;;;;0.10;0.10;;;;;;;30.26;44.98;99049.75;5049379;28;20055;-56
2021/07/19 03:28:08;;;;;;;0.10;0.10;;;;;;;30.25;44.91;99067.78;5031175;28;20103;-56
2021/07/19 03:30:35;;;;;;;0.28;0.28;;;;;;;30.04;45.29;99045.94;5015187;28;20061;-56
2021/07/19 03:33:01;;;;;;;0.00;0.00;;;;;;;30.18;45.36;99063.53;5047915;28;20103;-56
2021/07/19 03:35:27;;;;;;;0.22;0.22;;;;;;;30.21;45.44;99058.50;5047960;28;20059;-56
2021/07/19 03:37:57;;;;;;;0.10;0.10;;;;;;;30.42;45.04;99049.13;5031122;28;20180;-57
2021/07/19 03:40:25;;;;;;;0.10;0.10;;;;;;;31.02;43.64;99055.19;5031355;28;20055;-56
2021/07/19 03:42:59;;;;;;;0.25;0.25;;;;;;;31.94;41.99;99054.13;5051577;28;20059;-58
2021/07/19 03:45:25;;;;;;;0.85;0.40;;;;;;;32.96;39.63;99054.84;5052655;28;20049;-56
2021/07/19 03:47:51;;;;;;;0.45;0.45;;;;;;;33.70;38.07;99052.63;5034989;28;20458;-55
2021/07/19 03:50:18;;;;;;;0.10;0.10;;;;;;;33.82;38.23;99058.72;5018361;28;20053;-57
2021/07/19 03:52:48;;;;;;;0.10;0.10;;;;;;;33.20;39.32;99071.72;5035112;28;20102;-57
2021/07/19 03:55:22;;;;;;;0.10;0.10;;;;;;;32.66;40.15;99069.78;5019789;28;20680;-57
2021/07/19 03:57:50;;;;;;;0.40;0.40;;;;;;;32.38;41.20;99081.44;5051273;28;20045;-55
2021/07/19 04:00:18;;;;;;;0.10;0.10;;;;;;;32.11;41.48;99061.50;5034524;28;20056;-57
2021/07/19 04:03:04;;;;;;;0.30;0.30;;;;;;;32.03;41.92;99060.78;5036622;28;20519;-57
2021/07/19 04:05:40;;;;;;;0.03;0.03;;;;;;;31.99;41.73;99066.94;5034963;28;20040;-56
2021/07/19 04:08:13;;;;;;;0.03;0.03;;;;;;;31.94;42.07;99074.91;5034045;28;20053;-57
2021/07/19 04:10:39;;;;;;;0.10;0.10;;;;;;;31.92;42.04;99077.06;5052360;28;20064;-57
2021/07/19 04:13:09;;;;;;;0.10;0.10;;;;;;;31.90;42.27;99074.56;5050777;28;20107;-58
2021/07/19 04:15:42;;;;;;;0.00;0.00;;;;;;;31.96;41.88;99076.34;5018330;28;20059;-56
2021/07/19 04:18:10;;;;;;;0.10;0.10;;;;;;;31.95;41.80;99082.78;5034970;28;20408;-57
2021/07/19 04:20:48;;;;;;;0.47;0.47;;;;;;;31.79;42.22;99067.34;5050980;28;20060;-58
2021/07/19 04:23:17;;;;;;;0.10;0.10;;;;;;;32.05;42.08;99084.91;5051761;28;20064;-58
2021/07/19 04:25:45;;;;;;;0.10;0.10;;;;;;;32.38;41.28;99076.88;5034616;28;20681;-57
2021/07/19 04:28:18;;;;;;;0.25;0.25;;;;;;;32.47;41.01;99074.56;5051785;28;20041;-58
2021/07/19 04:30:45;;;;;;;0.30;0.30;;;;;;;32.25;41.50;99076.34;5050697;28;20053;-56
2021/07/19 04:33:16;;;;;;;0.10;0.10;;;;;;;32.26;41.70;99078.81;5051547;28;20044;-57
2021/07/19 04:35:45;;;;;;;0.43;0.43;;;;;;;32.78;41.12;99075.94;5050487;28;20099;-57
2021/07/19 04:38:17;;;;;;;0.22;0.22;;;;;;;33.01;40.17;99081.97;5033251;28;20044;-56
2021/07/19 04:40:48;;;;;;;0.10;0.10;;;;;;;33.38;39.73;99074.13;5050452;28;20525;-57
2021/07/19 04:43:17;;;;;;;0.32;0.32;;;;;;;33.54;39.32;99075.16;5051462;28;20052;-58
2021/07/19 04:45:46;;;;;;;0.13;0.13;;;;;;;33.50;39.12;99058.59;5051668;28;20056;-56
2021/07/19 04:48:13;;;;;;;0.30;0.30;;;;;;;33.53;39.55;99077.03;5033787;28;20064;-58
2021/07/19 04:50:40;;;;;;;0.03;0.03;;;;;;;33.53;39.46;99077.03;5051648;28;20066;-57
2021/07/19 04:53:09;;;;;;;0.75;0.75;;;;;;;33.92;38.80;99069.69;5050743;28;20045;-58
2021/07/19 04:55:39;;;;;;;0.10;0.10;;;;;;;34.58;37.36;99059.50;5051473;28;20136;-57
2021/07/19 04:58:04;;;;;;;;;;;;;;;34.28;38.00;99067.34;5034470;28;20789;-57
2021/07/19 05:00:34;;;;;;;0.10;0.10;;;;;;;34.67;37.11;99055.25;5051361;28;19968;-56
2021/07/19 05:03:01;;;;;;;0.20;0.20;;;;;;;35.08;36.40;99059.03;5017420;28;20148;-57
2021/07/19 05:05:27;;;;;;;0.00;0.00;;;;;;;34.71;36.95;99056.38;5033487;28;20069;-56
2021/07/19 05:07:55;;;;;;;0.10;0.10;;;;;;;34.65;36.94;99059.28;5049970;28;20040;-57
2021/07/19 05:10:23;;;;;;;0.10;0.10;;;;;;;34.57;37.30;99060.56;5050877;28;20053;-57
2021/07/19 05:12:51;;;;;;;0.73;0.73;;;;;;;34.09;37.96;99061.44;5050008;28;20585;-57
2021/07/19 05:15:18;;;;;;;0.00;0.00;;;;;;;33.72;38.87;99065.91;5033490;28;20068;-57
2021/07/19 05:17:44;;;;;;;0.30;0.30;;;;;;;34.02;38.71;99055.41;5050989;28;20087;-59
2021/07/19 05:20:17;;;;;;;0.10;0.10;;;;;;;34.68;37.26;99053.34;5050761;28;20089;-55
2021/07/19 05:22:53;;;;;;;0.10;0.10;;;;;;;34.84;36.90;99046.94;5049532;28;20152;-57
2021/07/19 05:25:24;;;;;;;0.40;0.40;;;;;;;35.54;35.50;99068.25;5032729;28;20083;-55
2021/07/19 05:27:58;;;;;;;0.20;0.20;;;;;;;35.41;35.71;99055.97;5050702;28;20518;-57
2021/07/19 05:30:28;;;;;;;0.10;0.10;;;;;;;35.39;35.85;99065.50;5050430;28;20076;-57
2021/07/19 05:32:54;;;;;;;0.40;0.40;;;;;;;35.11;36.28;99055.84;5050607;28;20518;-57
2021/07/19 05:35:20;;;;;;;0.10;0.10;;;;;;;35.02;36.57;99066.34;5050447;28;20103;-58
2021/07/19 05:37:46;;;;;;;0.40;0.40;;;;;;;35.14;36.19;99059.94;5050574;28;20098;-57
2021/07/19 05:40:13;;;;;;;0.25;0.25;;;;;;;35.58;35.75;99063.13;5032818;28;20056;-57
2021/07/19 05:42:39;;;;;;;0.22;0.22;;;;;;;35.88;34.89;99063.25;5050299;28;20056;-57
2021/07/19 05:45:07;;;;;;;0.20;0.20;;;;;;;36.17;34.14;99061.72;5050584;28;20048;-58
2021/07/19 05:47:33;;;;;;;0.32;0.32;;;;;;;36.30;33.93;99063.91;5032940;28;20106;-57
2021/07/19 05:50:03;;;;;;;0.10;0.10;;;;;;;36.29;33.94;99069.63;5016989;28;20522;-59
2021/07/19 05:52:35;;;;;;;0.10;0.10;;;;;;;36.02;34.45;99067.09;5033526;28;20045;-57
2021/07/19 05:55:02;;;;;;;0.20;0.20;;;;;;;35.96;34.83;99060.81;5000653;28;20518;-57
2021/07/19 05:57:28;;;;;;;0.10;0.10;;;;;;;36.51;33.77;99068.28;5032970;28;20486;-60
2021/07/19 05:59:56;;;;;;;0.50;0.50;;;;;;;36.12;34.35;99058.19;5050976;28;20056;-55
2021/07/19 06:02:23;;;;;;;0.10;0.10;;;;;;;36.17;33.95;99060.91;5033272;28;20053;-61
2021/07/19 06:04:51;;;;;;;0.25;0.25;;;;;;;36.34;34.10;99072.34;5050656;28;20047;-58
2021/07/19 06:07:19;;;;;;;;;;;;;;;36.75;33.23;99074.00;5001011;28;20136;-59
2021/07/19 06:09:45;;;;;;;0.20;0.20;;;;;;;36.95;32.73;99063.09;5049701;28;19927;-57
2021/07/19 06:12:13;;;;;;;0.10;0.10;;;;;;;36.94;32.76;99071.56;5049507;28;20540;-58
2021/07/19 06:14:41;;;;;;;0.20;0.20;;;;;;;36.46;33.64;99076.44;5049267;28;20072;-59
2021/07/19 06:17:07;;;;;;;0.20;0.20;;;;;;;36.79;33.01;99077.00;5033118;28;20081;-58
2021/07/19 06:19:33;;;;;;;0.10;0.10;;;;;;;36.87;32.75;99077.28;5049818;28;20041;-59
2021/07/19 06:21:59;;;;;;;0.10;0.10;;;;;;;36.47;33.50;99082.69;5049741;28;20127;-58
2021/07/19 06:24:28;;;;;;;0.10;0.10;;;;;;;36.13;34.16;99079.66;5049568;28;20052;-58
2021/07/19 06:26:54;;;;;;;0.10;0.10;;;;;;;36.26;33.89;99075.59;5050738;28;20054;-59
2021/07/19 06:29:20;;;;;;;0.28;0.28;;;;;;;36.43;33.70;99070.72;5032509;28;20061;-58
2021/07/19 06:31:46;;;;;;;0.30;0.30;;;;;;;36.16;33.85;99068.22;5032660;28;20083;-59
2021/07/19 06:34:14;;;;;;;0.08;0.08;;;;;;;36.86;33.12;99070.19;5050432;28;20454;-57
2021/07/19 06:36:44;;;;;;;0.50;0.50;;;;;;;37.02;32.74;99080.00;5050399;28;20053;-58
2021/07/19 06:39:12;;;;;;;0.60;0.60;;;;;;;41.30;26.16;99072.38;5032574;28;20055;-61
2021/07/19 06:41:39;;;;;;;0.20;0.20;;;;;;;42.58;23.81;99078.34;5032493;28;20100;-59
2021/07/19 06:44:05;;;;;;;1.00;1.00;;;;;;;43.42;22.78;99070.94;5049722;28;20072;-58
2021/07/19 06:46:31;;;;;;;0.40;0.40;;;;;;;45.83;20.07;99071.44;5031700;28;20106;-58
2021/07/19 06:49:00;;;;;;;0.20;0.20;;;;;;;44.75;21.10;99076.72;5031781;28;20557;-59
2021/07/19 06:51:26;;;;;;;3.00;1.42;;;;;;;44.19;21.74;99074.97;5031581;28;20080;-57
2021/07/19 06:53:52;;;;;;;0.30;0.30;;;;;;;45.77;20.09;99070.03;5049313;28;20045;-56
2021/07/19 06:56:18;;;;;;;0.30;0.30;;;;;;;46.51;19.13;99067.34;5031665;28;20056;-57
2021/07/19 06:58:44;;;;;;;0.32;0.32;;;;;;;46.08;19.57;99064.13;5049242;28;20146;-58
2021/07/19 07:01:11;;;;;;;0.10;0.10;;;;;;;42.93;23.00;99066.47;5049508;28;20052;-56
2021/07/19 07:03:36;;;;;;;0.20;0.20;;;;;;;40.76;26.12;99076.63;5031219;28;20522;-57
2021/07/19 07:06:02;;;;;;;0.20;0.20;;;;;;;39.57;27.56;99057.81;5049415;28;20049;-57
2021/07/19 07:08:29;;;;;;;0.32;0.32;;;;;;;39.08;28.41;99069.03;5049035;28;20053;-58
2021/07/19 07:10:54;;;;;;;0.10;0.10;;;;;;;38.53;29.45;99069.53;5049548;28;20075;-59
2021/07/19 07:13:20;;;;;;;0.10;0.10;;;;;;;38.21;30.00;99074.66;5049083;28;20057;-59
2021/07/19 07:15:48;;;;;;;0.17;0.17;;;;;;;38.07;30.25;99077.19;5050533;28;20107;-60
2021/07/19 07:18:14;;;;;;;0.10;0.10;;;;;;;37.93;30.92;99068.81;5053331;28;20532;-60
2021/07/19 07:20:40;;;;;;;0.43;0.43;;;;;;;37.69;31.16;99067.84;5053164;28;20071;-59
2021/07/19 07:23:06;;;;;;;0.10;0.10;;;;;;;37.47;31.63;99070.09;5053113;28;20056;-59
2021/07/19 07:25:32;;;;;;;0.17;0.17;;;;;;;37.51;31.64;99073.88;5053088;28;20067;-60
2021/07/19 07:27:58;;;;;;;0.10;0.10;;;;;;;37.40;31.41;99064.91;5053102;28;20178;-60
2021/07/19 07:30:25;;;;;;;0.40;0.40;;;;;;;37.42;31.84;99067.38;5052885;28;20111;-61
2021/07/19 07:32:52;;;;;;;0.22;0.22;;;;;;;37.32;31.65;99070.13;5053145;28;20052;-60
2021/07/19 07:35:18;;;;;;;0.10;0.10;;;;;;;37.20;32.01;99070.44;5052803;28;20537;-61
2021/07/19 07:37:43;;;;;;;0.20;0.20;;;;;;;37.03;32.49;99070.75;5051559;28;20044;-59
2021/07/19 07:40:12;;;;;;;0.17;0.17;;;;;;;36.89;32.85;99055.22;5053137;28;20427;-60
2021/07/19 07:42:38;;;;;;;0.20;0.20;;;;;;;37.04;32.31;99075.09;5052559;28;20107;-60
2021/07/19 07:45:05;;;;;;;0.20;0.20;;;;;;;37.05;32.53;99062.28;5052912;28;20075;-60
2021/07/19 07:47:31;;;;;;;0.10;0.10;;;;;;;36.94;32.28;99061.47;5034558;28;20422;-62
2021/07/19 07:49:57;;;;;;;0.10;0.10;;;;;;;36.87;32.60;99074.56;5052757;28;20052;-61
2021/07/19 07:52:23;;;;;;;0.52;0.30;;;;;;;36.88;32.39;99065.28;5052400;28;20048;-60
2021/07/19 07:54:48;;;;;;;0.10;0.10;;;;;;;36.76;32.91;99078.38;5034917;28;20441;-60
2021/07/19 07:57:14;;;;;;;0.40;0.40;;;;;;;36.69;32.70;99069.66;5052767;28;20045;-59
2021/07/19 07:59:40;;;;;;;0.10;0.10;;;;;;;36.39;33.19;99072.34;5051069;28;20076;-60
2021/07/19 08:02:06;;;;;;;0.13;0.13;;;;;;;36.24;33.58;99062.28;5052752;28;20462;-60
2021/07/19 08:04:33;;;;;;;0.30;0.30;;;;;;;36.14;33.74;99064.16;5052107;28;20065;-60
2021/07/19 08:06:59;;;;;;;0.10;0.10;;;;;;;36.07;34.08;99055.44;5052334;28;20131;-59
2021/07/19 08:09:25;;;;;;;0.03;0.03;;;;;;;35.76;34.33;99054.53;5051765;28;20048;-60
2021/07/19 08:11:51;;;;;;;0.10;0.10;;;;;;;35.37;35.02;99057.59;5052303;28;20132;-60
2021/07/19 08:14:17;;;;;;;1.05;1.00;;;;;;;35.27;35.26;99054.03;5052216;28;20049;-59
2021/07/19 08:16:43;;;;;;;0.20;0.20;;;;;;;35.40;35.04;99053.56;5051825;28;20052;-60
2021/07/19 08:19:09;;;;;;;0.20;0.20;;;;;;;35.39;34.81;99047.31;5051817;28;20414;-60
2021/07/19 08:21:36;;;;;;;0.20;0.20;;;;;;;35.38;34.96;99028.53;5050631;28;20041;-60
2021/07/19 08:24:03;;;;;;;0.10;0.10;;;;;;;35.45;34.92;99048.13;5017904;28;20524;-60
2021/07/19 08:26:28;;;;;;;0.08;0.08;;;;;;;35.29;35.04;99044.53;5051686;28;20468;-60
2021/07/19 08:28:55;;;;;;;0.10;0.10;;;;;;;35.24;35.07;99046.41;5050996;28;20045;-59
2021/07/19 08:31:23;;;;;;;0.08;0.08;;;;;;;35.20;35.05;99054.25;5051589;28;20414;-60
2021/07/19 08:33:49;;;;;;;0.10;0.10;;;;;;;35.14;35.32;99038.22;5051717;28;20053;-59
2021/07/19 08:36:15;;;;;;;0.00;0.00;;;;;;;35.07;35.29;99032.16;5051744;28;20059;-60
2021/07/19 08:38:41;;;;;;;0.08;0.08;;;;;;;35.04;35.20;99034.34;5051439;28;20053;-59
2021/07/19 08:41:07;;;;;;;0.00;0.00;;;;;;;34.97;35.60;99041.91;5050477;28;20041;-60
2021/07/19 08:43:35;;;;;;;0.22;0.13;;;;;;;34.87;35.49;99036.41;5051392;28;20049;-61
2021/07/19 08:46:01;;;;;;;0.25;0.25;;;;;;;34.88;35.46;99038.00;5051578;28;20037;-61
2021/07/19 08:48:27;;;;;;;0.32;0.32;;;;;;;34.84;35.71;99028.78;5033567;28;20044;-60
2021/07/19 08:50:53;;;;;;;0.10;0.10;;;;;;;34.69;35.56;99034.09;5051701;28;20426;-61
2021/07/19 08:53:19;;;;;;;0.00;0.00;;;;;;;34.73;35.26;99029.78;5051575;28;20080;-60
2021/07/19 08:55:49;;;;;;;0.10;0.10;;;;;;;34.59;35.60;99019.63;5051264;28;20658;-60
2021/07/19 08:58:15;;;;;;;0.20;0.20;;;;;;;34.45;36.23;99027.38;5034334;28;20053;-60
2021/07/19 09:00:42;;;;;;;0.10;0.10;;;;;;;34.35;36.17;99022.69;5051299;28;20052;-59
2021/07/19 09:03:07;;;;;;;0.32;0.32;;;;;;;34.32;35.81;99020.50;5051318;28;20136;-62
2021/07/19 09:05:33;;;;;;;0.03;0.03;;;;;;;34.31;35.66;99031.59;5051268;28;20175;-61
2021/07/19 09:07:59;;;;;;;0.10;0.10;;;;;;;34.31;35.83;99018.84;5051049;28;20856;-60
2021/07/19 09:10:26;;;;;;;0.00;0.00;;;;;;;34.28;35.88;99032.94;5050993;28;20071;-60
2021/07/19 09:12:53;;;;;;;0.03;0.03;;;;;;;34.24;35.76;99026.38;5049925;28;20118;-60
2021/07/19 09:15:34;;;;;;;0.17;0.17;;;;;;;34.23;35.34;99023.94;5033278;28;20544;-61
2021/07/19 09:18:00;;;;;;;0.10;0.10;;;;;;;34.17;35.35;99024.94;5050940;28;20138;-61
2021/07/19 09:20:31;;;;;;;0.10;0.10;;;;;;;34.17;35.28;99019.53;5032963;28;20124;-60
2021/07/19 09:22:57;;;;;;;0.10;0.10;;;;;;;34.13;34.60;99013.81;5050804;28;20051;-60
2021/07/19 09:25:23;;;;;;;0.10;0.10;;;;;;;34.16;34.95;99018.72;5050640;28;20506;-60
2021/07/19 09:28:04;;;;;;;0.20;0.20;;;;;;;34.14;34.58;99020.03;5050843;28;20510;-59
2021/07/19 09:30:34;;;;;;;0.10;0.10;;;;;;;34.15;34.51;99014.38;5050710;28;20053;-60
2021/07/19 09:33:05;;;;;;;0.30;0.30;;;;;;;34.10;34.49;99010.78;5050673;28;20597;-60
2021/07/19 09:35:32;;;;;;;0.10;0.10;;;;;;;34.08;34.51;99019.16;5050449;28;20049;-61
2021/07/19 09:38:03;;;;;;;0.17;0.17;;;;;;;34.04;34.74;99018.84;5050611;28;20045;-60
2021/07/19 09:40:29;;;;;;;0.10;0.10;;;;;;;34.04;34.87;99018.84;5050310;28;20064;-60
2021/07/19 09:42:56;;;;;;;0.10;0.10;;;;;;;34.08;34.66;99011.03;5050509;28;20053;-61
2021/07/19 09:45:31;;;;;;;0.10;0.10;;;;;;;34.15;34.54;99025.22;5050583;28;20053;-60
2021/07/19 09:48:07;;;;;;;0.28;0.28;;;;;;;34.13;34.03;99010.28;5049393;28;20055;-60
2021/07/19 09:50:53;;;;;;;0.10;0.10;;;;;;;34.16;34.00;99017.91;5050363;28;20106;-60
2021/07/19 09:53:43;;;;;;;0.10;0.10;;;;;;;34.15;33.91;99021.69;5050399;28;20045;-60
2021/07/19 09:56:17;;;;;;;0.08;0.08;;;;;;;34.15;33.66;98997.28;5050439;28;20110;-60
2021/07/19 09:58:43;;;;;;;0.10;0.10;;;;;;;34.16;33.66;99024.16;5050150;28;20073;-61
2021/07/19 10:01:28;;;;;;;0.10;0.10;;;;;;;34.17;33.95;99022.22;5050254;28;20056;-61
2021/07/19 10:04:11;;;;;;;0.10;0.10;;;;;;;34.14;33.57;99015.44;5050281;28;20430;-60
2021/07/19 10:06:39;;;;;;;0.20;0.20;;;;;;;34.17;33.56;99014.94;5049985;28;20048;-61
2021/07/19 10:09:12;;;;;;;0.10;0.10;;;;;;;34.21;33.58;99005.22;5049807;28;20454;-60
2021/07/19 10:11:57;;;;;;;0.03;0.03;;;;;;;34.20;33.57;99002.75;5032245;28;20049;-61
2021/07/19 10:14:25;;;;;;;0.20;0.20;;;;;;;34.22;33.38;99006.03;5050001;28;20049;-60
2021/07/19 10:16:51;;;;;;;0.35;0.35;;;;;;;34.20;33.08;99008.16;5049939;28;20094;-60
2021/07/19 10:19:17;;;;;;;0.40;0.40;;;;;;;34.17;32.91;99014.94;5031980;28;20075;-60
2021/07/19 10:21:43;;;;;;;0.08;0.08;;;;;;;34.02;32.78;99012.06;5032044;28;20060;-60
2021/07/19 10:24:10;;;;;;;0.10;0.10;;;;;;;33.97;32.97;99010.09;5031867;28;20053;-60
2021/07/19 10:26:36;;;;;;;0.10;0.10;;;;;;;33.92;32.57;99006.53;5031864;28;20056;-60
2021/07/19 10:29:03;;;;;;;0.10;0.10;;;;;;;33.87;32.50;99003.75;5031882;28;20049;-59
2021/07/19 10:31:29;;;;;;;0.10;0.10;;;;;;;33.82;32.40;99001.00;5049526;28;20418;-60
2021/07/19 10:33:57;;;;;;;0.10;0.10;;;;;;;33.81;32.47;98994.78;5032010;28;20466;-60
2021/07/19 10:36:25;;;;;;;0.20;0.20;;;;;;;33.83;32.13;98991.81;5031834;28;20087;-60
2021/07/19 10:38:54;;;;;;;0.10;0.10;;;;;;;33.78;32.17;98999.88;5049285;28;20059;-60
2021/07/19 10:41:24;;;;;;;0.38;0.38;;;;;;;33.74;32.02;98998.75;5048210;28;20049;-60
2021/07/19 10:44:26;;;;;;;0.05;0.05;;;;;;;33.72;31.72;98990.88;5049175;28;20048;-60
2021/07/19 10:46:52;;;;;;;0.00;0.00;;;;;;;33.70;31.99;98995.75;5006916;28;20072;-60
2021/07/19 10:49:20;;;;;;;0.10;0.10;;;;;;;33.71;31.69;98986.53;5049532;28;20056;-61
2021/07/19 10:51:47;;;;;;;0.00;0.00;;;;;;;33.66;31.82;98999.22;5030814;28;20111;-60
2021/07/19 10:54:18;;;;;;;0.10;0.10;;;;;;;33.66;31.54;98993.81;5049507;28;20135;-60
2021/07/19 10:56:44;;;;;;;0.10;0.10;;;;;;;33.55;31.81;98973.88;5049103;28;20486;-59
2021/07/19 10:59:10;;;;;;;0.47;0.20;;;;;;;33.55;32.19;98971.16;5049338;28;20403;-61
2021/07/19 11:01:36;;;;;;;0.10;0.10;;;;;;;33.63;31.74;98987.00;5047763;28;20095;-60
2021/07/19 11:04:14;;;;;;;0.08;0.08;;;;;;;33.64;31.40;98983.22;5031348;28;20049;-60
2021/07/19 11:06:47;;;;;;;0.17;0.17;;;;;;;33.60;31.77;98987.50;5049155;28;20053;-60
2021/07/19 11:09:13;;;;;;;0.00;0.00;;;;;;;33.48;31.92;98979.50;5049049;28;20095;-60
2021/07/19 11:11:40;;;;;;;0.00;0.00;;;;;;;33.42;31.79;98975.09;5031168;28;20067;-59
2021/07/19 11:14:07;;;;;;;0.10;0.10;;;;;;;33.40;32.26;98965.59;5031212;28;20060;-59
2021/07/19 11:16:47;;;;;;;0.10;0.10;;;;;;;33.51;31.80;98976.28;5048952;28;20080;-58
2021/07/19 11:19:13;;;;;;;;;;;;;;;33.58;31.63;98972.53;5049299;28;20056;-58
2021/07/19 11:21:39;;;;;;;0.30;0.30;;;;;;;33.61;31.41;98967.47;5049003;28;19927;-58
2021/07/19 11:24:09;;;;;;;0.20;0.20;;;;;;;33.62;31.46;98968.28;5048941;28;20077;-58
2021/07/19 11:26:45;;;;;;;0.08;0.08;;;;;;;33.63;31.57;98973.47;5048911;28;20057;-58
2021/07/19 11:29:11;;;;;;;0.10;0.10;;;;;;;33.57;31.22;98955.50;5031380;28;20422;-58
2021/07/19 11:31:37;;;;;;;0.10;0.10;;;;;;;33.54;31.17;98956.00;5048873;28;20045;-58
2021/07/19 11:34:04;;;;;;;0.13;0.13;;;;;;;33.54;30.96;98964.13;5047848;28;20107;-58
2021/07/19 11:36:32;;;;;;;0.05;0.05;;;;;;;33.53;30.76;98954.38;5031058;28;20056;-58
2021/07/19 11:39:00;;;;;;;0.05;0.05;;;;;;;33.51;30.93;98945.66;5031331;28;20048;-59
2021/07/19 11:41:27;;;;;;;0.10;0.10;;;;;;;33.48;31.53;98946.19;5049013;28;20049;-58